createdAt,value
2018-12-19T00:01:04.933Z,79.80
2018-12-19T00:03:32.405Z,79.70
2018-12-19T00:06:00.893Z,79.70
2018-12-19T00:08:28.354Z,79.70
2018-12-19T00:10:55.796Z,79.60
2018-12-19T00:13:23.267Z,79.70
2018-12-19T00:15:50.727Z,79.60
2018-12-19T00:18:18.174Z,79.70
2018-12-19T00:20:45.632Z,79.20
2018-12-19T00:23:13.079Z,79.50
2018-12-19T00:25:40.586Z,79.60
2018-12-19T00:28:08.067Z,79.80
2018-12-19T00:30:35.521Z,79.60
2018-12-19T00:33:03.023Z,79.70
2018-12-19T00:35:30.481Z,79.70
2018-12-19T00:37:57.926Z,79.70
2018-12-19T00:40:25.405Z,79.70
2018-12-19T00:42:53.432Z,79.70
2018-12-19T00:45:20.890Z,79.60
2018-12-19T00:47:48.321Z,79.80
2018-12-19T00:50:15.755Z,79.70
2018-12-19T00:52:43.276Z,79.60
2018-12-19T00:55:10.731Z,79.60
2018-12-19T00:57:38.212Z,79.50
2018-12-19T01:00:06.685Z,79.60
2018-12-19T01:02:34.144Z,79.40
2018-12-19T01:05:01.594Z,79.50
2018-12-19T01:07:29.061Z,79.60
2018-12-19T01:09:56.620Z,79.60
2018-12-19T01:12:24.078Z,79.60
2018-12-19T01:14:51.578Z,79.30
2018-12-19T01:17:19.000Z,79.30
2018-12-19T01:19:47.180Z,79.30
2018-12-19T01:22:14.640Z,79.50
2018-12-19T01:24:42.412Z,79.50
2018-12-19T01:27:09.871Z,79.50
2018-12-19T01:29:37.317Z,79.50
2018-12-19T01:32:04.837Z,79.50
2018-12-19T01:34:32.275Z,79.60
2018-12-19T01:36:59.728Z,79.50
2018-12-19T01:39:27.193Z,79.50
2018-12-19T01:41:54.689Z,79.50
2018-12-19T01:44:22.222Z,79.60
2018-12-19T01:46:49.682Z,79.60
2018-12-19T01:49:17.241Z,79.70
2018-12-19T01:51:44.713Z,79.70
2018-12-19T01:54:12.152Z,79.90
2018-12-19T01:56:39.583Z,79.80
2018-12-19T01:59:07.089Z,79.80
2018-12-19T02:01:34.868Z,79.90
2018-12-19T02:04:02.317Z,79.80
2018-12-19T02:06:29.754Z,79.80
2018-12-19T02:08:57.243Z,79.70
2018-12-19T02:11:24.684Z,79.70
2018-12-19T02:13:52.110Z,79.70
2018-12-19T02:16:19.532Z,79.80
2018-12-19T02:18:46.979Z,79.80
2018-12-19T02:21:14.544Z,79.80
2018-12-19T02:23:42.039Z,79.70
2018-12-19T02:26:09.477Z,79.80
2018-12-19T02:28:36.937Z,79.60
2018-12-19T02:31:05.408Z,79.60
2018-12-19T02:33:32.882Z,79.70
2018-12-19T02:36:00.393Z,79.60
2018-12-19T02:38:27.943Z,79.70
2018-12-19T02:40:55.395Z,79.70
2018-12-19T02:43:22.943Z,79.70
2018-12-19T02:45:50.504Z,79.60
2018-12-19T02:48:18.061Z,79.60
2018-12-19T02:50:45.622Z,79.80
2018-12-19T02:53:13.078Z,79.80
2018-12-19T02:55:40.550Z,79.90
2018-12-19T03:00:30.562Z,79.90
2018-12-19T03:02:58.022Z,80.00
2018-12-19T03:05:25.469Z,80.10
2018-12-19T03:07:52.916Z,80.20
2018-12-19T03:10:20.402Z,80.20
2018-12-19T03:12:48.036Z,80.10
2018-12-19T03:15:15.547Z,80.10
2018-12-19T03:17:42.987Z,80.10
2018-12-19T03:20:10.588Z,80.10
2018-12-19T03:22:40.052Z,80.10
2018-12-19T03:25:07.533Z,80.10
2018-12-19T03:27:35.000Z,80.00
2018-12-19T03:30:02.490Z,79.90
2018-12-19T03:32:30.001Z,79.90
2018-12-19T03:34:57.473Z,79.90
2018-12-19T03:37:24.932Z,79.80
2018-12-19T03:39:52.407Z,79.70
2018-12-19T03:42:19.874Z,79.70
2018-12-19T03:44:47.309Z,79.60
2018-12-19T03:47:14.802Z,79.60
2018-12-19T03:49:42.575Z,79.60
2018-12-19T03:52:10.018Z,79.50
2018-12-19T03:54:37.454Z,79.50
2018-12-19T03:57:05.224Z,79.50
2018-12-19T03:59:32.764Z,79.50
2018-12-19T04:02:00.396Z,79.40
2018-12-19T04:04:27.823Z,79.40
2018-12-19T04:06:55.269Z,79.40
2018-12-19T04:09:22.828Z,79.20
2018-12-19T04:11:50.281Z,79.10
2018-12-19T04:14:17.724Z,79.00
2018-12-19T04:16:45.265Z,79.00
2018-12-19T04:19:12.857Z,78.90
2018-12-19T04:21:40.318Z,78.90
2018-12-19T04:24:07.759Z,78.90
2018-12-19T04:26:35.220Z,79.10
2018-12-19T04:29:02.671Z,79.20
2018-12-19T04:31:30.148Z,79.20
2018-12-19T04:33:57.577Z,79.10
2018-12-19T04:36:25.053Z,78.70
2018-12-19T04:38:52.591Z,78.70
2018-12-19T04:41:20.081Z,78.60
2018-12-19T04:43:47.599Z,78.60
2018-12-19T04:46:15.044Z,78.50
2018-12-19T04:48:42.648Z,78.50
2018-12-19T04:51:10.066Z,78.60
2018-12-19T04:53:37.594Z,78.60
2018-12-19T04:56:05.072Z,78.50
2018-12-19T04:58:32.532Z,78.40
2018-12-19T05:01:00.088Z,78.40
2018-12-19T05:03:27.508Z,78.50
2018-12-19T05:05:55.008Z,78.60
2018-12-19T05:08:22.474Z,78.70
2018-12-19T05:10:49.960Z,78.90
2018-12-19T05:13:17.396Z,78.90
2018-12-19T05:15:44.836Z,78.90
2018-12-19T05:18:12.298Z,79.10
2018-12-19T05:20:39.724Z,79.00
2018-12-19T05:23:07.644Z,78.90
2018-12-19T05:25:35.072Z,79.00
2018-12-19T05:28:02.578Z,79.00
2018-12-19T05:30:30.019Z,78.90
2018-12-19T05:32:57.499Z,78.90
2018-12-19T05:35:24.964Z,78.70
2018-12-19T05:37:52.388Z,78.60
2018-12-19T05:40:19.839Z,78.70
2018-12-19T05:42:47.368Z,78.60
2018-12-19T05:45:14.835Z,78.70
2018-12-19T05:47:42.282Z,78.60
2018-12-19T05:50:10.284Z,78.60
2018-12-19T05:52:37.864Z,78.60
2018-12-19T05:55:05.352Z,78.60
2018-12-19T05:57:33.380Z,78.90
2018-12-19T06:00:00.853Z,79.30
2018-12-19T06:02:28.376Z,79.30
2018-12-19T06:04:55.847Z,79.00
2018-12-19T06:07:23.317Z,79.00
2018-12-19T06:09:50.755Z,79.00
2018-12-19T06:12:18.245Z,79.10
2018-12-19T06:14:45.696Z,79.20
2018-12-19T06:17:13.251Z,79.20
2018-12-19T06:19:40.700Z,79.40
2018-12-19T06:22:08.177Z,79.40
2018-12-19T06:24:35.729Z,79.30
2018-12-19T06:27:03.191Z,79.30
2018-12-19T06:29:30.629Z,79.30
2018-12-19T06:31:58.067Z,79.30
2018-12-19T06:34:25.670Z,79.30
2018-12-19T06:36:53.146Z,79.20
2018-12-19T06:39:20.656Z,79.20
2018-12-19T06:41:48.429Z,79.30
2018-12-19T06:44:15.865Z,79.30
2018-12-19T06:46:43.300Z,79.50
2018-12-19T06:49:10.725Z,79.40
2018-12-19T06:51:38.161Z,79.30
2018-12-19T06:54:05.609Z,79.50
2018-12-19T06:56:33.162Z,79.60
2018-12-19T06:59:00.728Z,79.70
2018-12-19T07:01:28.782Z,79.70
2018-12-19T07:03:56.263Z,79.50
2018-12-19T07:06:23.712Z,79.70
2018-12-19T07:08:51.568Z,80.00
2018-12-19T07:11:19.755Z,80.10
2018-12-19T07:13:47.211Z,80.10
2018-12-19T07:16:14.636Z,80.10
2018-12-19T07:18:43.277Z,79.70
2018-12-19T07:21:10.746Z,79.80
2018-12-19T07:23:38.882Z,80.00
2018-12-19T07:26:06.405Z,80.00
2018-12-19T07:28:33.974Z,80.00
2018-12-19T07:31:01.405Z,79.90
2018-12-19T07:33:28.860Z,80.00
2018-12-19T07:35:56.336Z,80.10
2018-12-19T07:38:23.798Z,80.30
2018-12-19T07:40:51.269Z,80.20
2018-12-19T07:43:18.706Z,80.20
2018-12-19T07:45:46.270Z,80.20
2018-12-19T07:48:14.077Z,80.10
2018-12-19T07:50:41.565Z,79.80
2018-12-19T07:53:09.148Z,79.80
2018-12-19T07:55:38.456Z,79.60
2018-12-19T07:58:05.897Z,79.50
2018-12-19T08:00:33.408Z,79.40
2018-12-19T08:03:00.838Z,79.20
2018-12-19T08:05:28.284Z,79.20
2018-12-19T08:07:55.736Z,79.20
2018-12-19T08:10:23.266Z,79.30
2018-12-19T08:12:50.715Z,79.30
2018-12-19T08:15:18.774Z,79.30
2018-12-19T08:17:46.228Z,79.30
2018-12-19T08:20:13.741Z,79.40
2018-12-19T08:22:41.522Z,79.40
2018-12-19T08:25:09.075Z,79.10
2018-12-19T08:27:36.476Z,79.10
2018-12-19T08:30:06.643Z,79.20
2018-12-19T08:32:34.251Z,79.60
2018-12-19T08:35:01.671Z,79.50
2018-12-19T08:37:29.118Z,79.10
2018-12-19T08:39:56.604Z,78.80
2018-12-19T08:42:24.027Z,78.60
2018-12-19T08:44:51.471Z,78.60
2018-12-19T08:47:18.973Z,78.50
2018-12-19T08:49:46.437Z,78.60
2018-12-19T08:52:13.900Z,78.40
2018-12-19T08:54:41.439Z,78.60
2018-12-19T08:57:08.924Z,78.40
2018-12-19T08:59:36.357Z,78.30
2018-12-19T09:02:03.865Z,78.20
2018-12-19T09:04:31.399Z,78.40
2018-12-19T09:06:58.832Z,78.60
2018-12-19T09:09:26.274Z,78.50
2018-12-19T09:11:53.767Z,78.60
2018-12-19T09:14:21.229Z,78.50
2018-12-19T09:16:48.749Z,78.60
2018-12-19T09:19:16.193Z,78.50
2018-12-19T09:21:43.732Z,78.80
2018-12-19T09:24:11.281Z,79.00
2018-12-19T09:26:38.692Z,78.90
2018-12-19T09:29:06.193Z,78.70
2018-12-19T09:31:34.420Z,78.80
2018-12-19T09:34:01.894Z,79.00
2018-12-19T09:36:29.337Z,79.10
2018-12-19T09:38:56.780Z,79.20
2018-12-19T09:41:24.259Z,79.10
2018-12-19T09:43:51.703Z,79.10
2018-12-19T09:46:19.181Z,79.00
2018-12-19T09:48:46.769Z,79.00
2018-12-19T09:51:14.213Z,78.80
2018-12-19T09:53:41.672Z,78.80
2018-12-19T09:56:09.140Z,78.70
2018-12-19T09:58:37.009Z,78.50
2018-12-19T10:01:05.461Z,78.50
2018-12-19T10:03:34.011Z,78.70
2018-12-19T10:06:01.583Z,78.40
2018-12-19T10:08:29.101Z,78.20
2018-12-19T10:10:57.118Z,78.40
2018-12-19T10:13:24.599Z,78.50
2018-12-19T10:15:52.023Z,78.70
2018-12-19T10:18:19.475Z,78.70
2018-12-19T10:20:46.904Z,78.40
2018-12-19T10:23:14.360Z,78.30
2018-12-19T10:25:41.842Z,78.10
2018-12-19T10:28:09.280Z,78.00
2018-12-19T10:30:38.714Z,77.80
2018-12-19T10:33:06.164Z,77.70
2018-12-19T10:35:34.257Z,77.80
2018-12-19T10:38:01.711Z,77.80
2018-12-19T10:40:29.292Z,78.00
2018-12-19T10:42:56.754Z,78.10
2018-12-19T10:45:24.205Z,78.20
2018-12-19T10:47:51.695Z,78.30
2018-12-19T10:50:19.355Z,78.30
2018-12-19T10:52:46.833Z,78.20
2018-12-19T10:55:14.316Z,77.70
2018-12-19T10:57:41.767Z,77.50
2018-12-19T11:00:11.546Z,77.60
2018-12-19T11:02:39.056Z,77.40
2018-12-19T11:05:06.535Z,77.00
2018-12-19T11:07:33.965Z,76.90
2018-12-19T11:10:01.407Z,76.80
2018-12-19T11:12:28.840Z,76.80
2018-12-19T11:14:56.297Z,76.80
2018-12-19T11:17:23.755Z,76.80
2018-12-19T11:19:51.202Z,76.60
2018-12-19T11:22:18.697Z,76.60
2018-12-19T11:24:46.215Z,76.60
2018-12-19T11:27:13.651Z,76.60
2018-12-19T11:29:41.433Z,76.70
2018-12-19T11:32:08.942Z,76.70
2018-12-19T11:34:36.386Z,76.70
2018-12-19T11:37:03.879Z,76.70
2018-12-19T11:39:31.400Z,76.80
2018-12-19T11:41:58.855Z,76.90
2018-12-19T11:44:26.292Z,77.00
2018-12-19T11:46:53.772Z,77.00
2018-12-19T11:49:21.207Z,77.00
2018-12-19T11:51:49.513Z,77.10
2018-12-19T11:54:17.027Z,77.20
2018-12-19T11:56:44.504Z,77.40
2018-12-19T11:59:11.975Z,77.20
2018-12-19T12:01:41.505Z,77.20
2018-12-19T12:04:09.027Z,77.40
2018-12-19T12:06:36.500Z,77.40
2018-12-19T12:09:07.095Z,77.60
2018-12-19T12:11:34.640Z,77.80
2018-12-19T12:14:02.262Z,77.90
2018-12-19T12:16:29.711Z,77.70
2018-12-19T12:18:57.141Z,77.70
2018-12-19T12:21:24.611Z,77.60
2018-12-19T12:23:52.132Z,77.50
2018-12-19T12:26:19.759Z,77.40
2018-12-19T12:28:47.300Z,77.20
2018-12-19T12:31:14.815Z,77.10
2018-12-19T12:33:42.322Z,77.20
2018-12-19T12:36:09.986Z,77.40
2018-12-19T12:38:37.464Z,77.40
2018-12-19T12:41:05.196Z,77.40
2018-12-19T12:43:32.721Z,77.50
2018-12-19T12:46:00.183Z,77.50
2018-12-19T12:48:27.624Z,77.30
2018-12-19T12:50:55.104Z,77.20
2018-12-19T12:53:22.551Z,77.10
2018-12-19T12:55:50.041Z,77.10
2018-12-19T12:58:17.495Z,77.10
2018-12-19T13:00:44.941Z,77.00
2018-12-19T13:03:12.428Z,77.10
2018-12-19T13:05:39.893Z,77.20
2018-12-19T13:08:07.316Z,77.10
2018-12-19T13:10:36.466Z,77.20
2018-12-19T13:13:04.191Z,76.90
2018-12-19T13:15:37.484Z,76.80
2018-12-19T13:18:04.936Z,76.90
2018-12-19T13:20:32.373Z,77.10
2018-12-19T13:23:00.028Z,77.00
2018-12-19T13:25:27.552Z,76.80
2018-12-19T13:27:54.988Z,76.90
2018-12-19T13:30:22.426Z,76.90
2018-12-19T13:32:49.863Z,77.20
2018-12-19T13:35:17.292Z,77.20
2018-12-19T13:37:44.882Z,77.20
2018-12-19T13:40:13.246Z,76.90
2018-12-19T13:42:40.676Z,77.00
2018-12-19T13:45:08.297Z,77.00
2018-12-19T13:47:35.851Z,76.90
2018-12-19T13:50:04.820Z,76.90
2018-12-19T13:52:32.272Z,76.80
2018-12-19T13:54:59.731Z,76.60
2018-12-19T13:57:28.376Z,76.40
2018-12-19T13:59:55.991Z,76.40
2018-12-19T14:02:23.461Z,76.40
2018-12-19T14:04:51.166Z,76.40
2018-12-19T14:07:18.685Z,76.40
2018-12-19T14:09:46.174Z,76.40
2018-12-19T14:12:13.624Z,76.40
2018-12-19T14:14:41.055Z,76.60
2018-12-19T14:17:08.562Z,76.60
2018-12-19T14:19:35.984Z,76.60
2018-12-19T14:22:03.571Z,77.00
2018-12-19T14:24:31.005Z,77.10
2018-12-19T14:26:58.448Z,77.40
2018-12-19T14:29:25.885Z,77.30
2018-12-19T14:31:53.756Z,77.10
2018-12-19T14:34:21.300Z,77.10
2018-12-19T14:36:48.784Z,76.90
2018-12-19T14:39:16.320Z,76.90
2018-12-19T14:41:43.727Z,76.90
2018-12-19T14:44:11.259Z,76.90
2018-12-19T14:46:38.749Z,76.90
2018-12-19T14:49:06.243Z,76.80
2018-12-19T14:51:33.828Z,76.90
2018-12-19T14:54:01.307Z,77.10
2018-12-19T14:56:28.756Z,77.20
2018-12-19T14:58:56.328Z,77.30
2018-12-19T15:01:23.760Z,77.30
2018-12-19T15:03:51.261Z,77.40
2018-12-19T15:06:18.715Z,77.50
2018-12-19T15:08:46.693Z,77.50
2018-12-19T15:11:14.162Z,77.60
2018-12-19T15:13:41.640Z,77.70
2018-12-19T15:16:09.097Z,77.80
2018-12-19T15:18:36.646Z,77.80
2018-12-19T15:21:04.144Z,77.90
2018-12-19T15:23:31.694Z,77.80
2018-12-19T15:25:59.260Z,77.80
2018-12-19T15:28:26.929Z,77.90
2018-12-19T15:30:54.355Z,77.90
2018-12-19T15:33:21.825Z,78.00
2018-12-19T15:35:49.316Z,78.10
2018-12-19T15:38:16.789Z,78.20
2018-12-19T15:40:44.270Z,78.20
2018-12-19T15:43:11.797Z,78.30
2018-12-19T15:45:39.281Z,78.20
2018-12-19T15:48:06.804Z,78.20
2018-12-19T15:50:34.254Z,78.20
2018-12-19T15:53:01.682Z,78.20
2018-12-19T15:55:29.165Z,78.20
2018-12-19T15:57:56.600Z,78.10
2018-12-19T16:00:24.056Z,78.10
2018-12-19T16:02:51.516Z,78.10
2018-12-19T16:05:19.050Z,78.20
2018-12-19T16:07:46.509Z,78.20
2018-12-19T16:10:13.956Z,78.20
2018-12-19T16:12:41.536Z,78.30
2018-12-19T16:15:09.009Z,78.30
2018-12-19T16:17:36.667Z,78.30
2018-12-19T16:20:05.963Z,78.30
2018-12-19T16:22:33.417Z,78.40
2018-12-19T16:25:00.889Z,78.40
2018-12-19T16:27:28.466Z,78.50
2018-12-19T16:29:55.996Z,78.50
2018-12-19T16:32:23.434Z,78.40
2018-12-19T16:34:51.207Z,78.40
2018-12-19T16:37:18.703Z,78.40
2018-12-19T16:39:46.139Z,78.50
2018-12-19T16:42:13.592Z,78.70
2018-12-19T16:44:41.376Z,78.70
2018-12-19T16:47:08.820Z,78.80
2018-12-19T16:49:36.281Z,78.80
2018-12-19T16:52:03.782Z,78.90
2018-12-19T16:54:31.332Z,78.90
2018-12-19T16:56:58.786Z,79.10
2018-12-19T16:59:26.264Z,79.20
2018-12-19T17:01:53.755Z,79.20
2018-12-19T17:04:21.364Z,79.10
2018-12-19T17:06:51.451Z,79.10
2018-12-19T17:09:19.269Z,79.20
2018-12-19T17:11:46.724Z,79.40
2018-12-19T17:14:14.201Z,79.20
2018-12-19T17:16:41.635Z,79.20
2018-12-19T17:19:09.154Z,79.10
2018-12-19T17:21:37.525Z,79.10
2018-12-19T17:24:07.472Z,79.10
2018-12-19T17:26:34.989Z,79.20
2018-12-19T17:29:02.434Z,79.10
2018-12-19T17:31:29.860Z,79.00
2018-12-19T17:33:57.305Z,79.10
2018-12-19T17:36:24.751Z,79.10
2018-12-19T17:38:52.204Z,79.20
2018-12-19T17:41:19.685Z,79.20
2018-12-19T17:43:47.120Z,79.30
2018-12-19T17:46:14.578Z,79.30
2018-12-19T17:48:42.049Z,79.40
2018-12-19T17:51:09.617Z,79.40
2018-12-19T17:53:37.063Z,79.50
2018-12-19T17:56:04.549Z,79.60
2018-12-19T17:58:31.977Z,79.70
2018-12-19T18:00:59.477Z,79.70
2018-12-19T18:03:26.910Z,79.80
2018-12-19T18:05:54.392Z,79.80
2018-12-19T18:08:21.838Z,79.70
2018-12-19T18:10:49.289Z,79.80
2018-12-19T18:13:16.782Z,80.00
2018-12-19T18:15:44.207Z,80.10
2018-12-19T18:18:11.650Z,79.80
2018-12-19T18:20:39.168Z,79.80
2018-12-19T18:23:06.603Z,80.10
2018-12-19T18:25:34.058Z,80.10
2018-12-19T18:28:01.754Z,80.10
2018-12-19T18:30:29.261Z,80.10
2018-12-19T18:32:56.774Z,80.10
2018-12-19T18:35:24.237Z,80.20
2018-12-19T18:37:51.672Z,80.30
2018-12-19T18:40:19.104Z,80.30
2018-12-19T18:42:46.638Z,80.50
2018-12-19T18:45:14.085Z,80.50
2018-12-19T18:47:41.535Z,80.60
2018-12-19T18:50:09.007Z,80.60
2018-12-19T18:52:36.527Z,80.70
2018-12-19T18:55:05.027Z,80.80
2018-12-19T18:57:32.507Z,80.90
2018-12-19T18:59:59.933Z,80.90
2018-12-19T19:02:27.350Z,81.00
2018-12-19T19:04:54.778Z,81.00
2018-12-19T19:07:22.243Z,81.10
2018-12-19T19:09:49.756Z,81.20
2018-12-19T19:12:18.040Z,81.20
2018-12-19T19:14:45.469Z,81.20
2018-12-19T19:17:12.936Z,81.00
2018-12-19T19:19:40.352Z,81.00
2018-12-19T19:22:07.926Z,81.00
2018-12-19T19:24:35.378Z,81.00
2018-12-19T19:27:02.924Z,81.00
2018-12-19T19:29:30.447Z,80.80
2018-12-19T19:31:57.947Z,80.70
2018-12-19T19:34:25.707Z,80.70
2018-12-19T19:36:53.316Z,80.70
2018-12-19T19:39:20.820Z,80.70
2018-12-19T19:41:48.260Z,80.70
2018-12-19T19:44:15.722Z,80.70
2018-12-19T19:46:43.183Z,80.70
2018-12-19T19:49:10.637Z,80.60
2018-12-19T19:51:38.232Z,80.60
2018-12-19T19:54:05.687Z,80.70
2018-12-19T19:56:33.253Z,80.50
2018-12-19T19:59:00.746Z,80.50
2018-12-19T20:01:28.201Z,80.40
2018-12-19T20:03:55.966Z,80.40
2018-12-19T20:06:23.472Z,80.50
2018-12-19T20:08:50.972Z,80.50
2018-12-19T20:11:18.397Z,80.40
2018-12-19T20:13:45.830Z,80.40
2018-12-19T20:16:13.478Z,80.40
2018-12-19T20:18:40.952Z,80.40
2018-12-19T20:21:08.418Z,80.50
2018-12-19T20:23:35.959Z,80.50
2018-12-19T20:26:03.510Z,80.50
2018-12-19T20:28:31.069Z,80.60
2018-12-19T20:30:58.640Z,80.70
2018-12-19T20:33:26.236Z,80.80
2018-12-19T20:35:53.830Z,80.80
2018-12-19T20:38:21.332Z,80.90
2018-12-19T20:40:48.792Z,80.90
2018-12-19T20:43:16.258Z,81.00
2018-12-19T20:45:43.836Z,81.00
2018-12-19T20:48:11.290Z,81.10
2018-12-19T20:50:38.736Z,81.10
2018-12-19T20:53:06.189Z,81.20
2018-12-19T20:55:33.734Z,81.20
2018-12-19T20:58:01.170Z,81.20
2018-12-19T21:00:28.941Z,81.20
2018-12-19T21:02:56.583Z,81.20
2018-12-19T21:05:24.089Z,81.30
2018-12-19T21:07:52.520Z,81.40
2018-12-19T21:10:20.036Z,81.40
2018-12-19T21:12:47.547Z,81.50
2018-12-19T21:15:15.047Z,81.60
2018-12-19T21:17:48.144Z,81.50
2018-12-19T21:20:15.677Z,81.50
2018-12-19T21:22:43.131Z,81.50
2018-12-19T21:25:10.640Z,81.50
2018-12-19T21:27:38.055Z,81.50
2018-12-19T21:30:07.453Z,81.50
2018-12-19T21:32:34.920Z,81.50
2018-12-19T21:35:02.353Z,81.50
2018-12-19T21:37:29.846Z,81.60
2018-12-19T21:39:57.795Z,81.60
2018-12-19T21:42:25.368Z,81.50
2018-12-19T21:44:52.812Z,81.50
2018-12-19T21:47:20.254Z,81.60
2018-12-19T21:49:47.901Z,81.50
2018-12-19T21:52:15.384Z,81.50
2018-12-19T21:54:42.890Z,81.40
2018-12-19T21:57:10.354Z,81.50
2018-12-19T21:59:37.800Z,81.40
2018-12-19T22:02:05.692Z,81.40
2018-12-19T22:04:33.224Z,81.40
2018-12-19T22:07:00.823Z,81.40
2018-12-19T22:09:28.383Z,81.40
2018-12-19T22:11:56.208Z,81.50
2018-12-19T22:14:23.840Z,81.50
2018-12-19T22:16:57.142Z,81.60
2018-12-19T22:19:24.668Z,81.50
2018-12-19T22:21:53.152Z,81.50
2018-12-19T22:24:20.595Z,81.50
2018-12-19T22:26:48.085Z,81.50
2018-12-19T22:29:15.504Z,81.50
2018-12-19T22:31:43.567Z,81.50
2018-12-19T22:34:11.100Z,81.50
2018-12-19T22:36:38.616Z,81.60
2018-12-19T22:39:10.295Z,81.60
2018-12-19T22:41:38.133Z,81.60
2018-12-19T22:44:08.099Z,81.60
2018-12-19T22:46:35.037Z,81.50
2018-12-19T22:49:02.459Z,81.50
2018-12-19T22:51:30.079Z,81.60
2018-12-19T22:53:57.575Z,81.70
2018-12-19T22:56:25.078Z,81.70
2018-12-19T22:58:53.244Z,81.70
2018-12-19T23:01:26.590Z,81.80
2018-12-19T23:04:00.291Z,81.80
2018-12-19T23:06:27.760Z,81.70
2018-12-19T23:08:55.653Z,81.80
2018-12-19T23:11:23.290Z,82.00
2018-12-19T23:13:50.847Z,82.10
2018-12-19T23:16:18.481Z,81.90
2018-12-19T23:18:46.372Z,82.00
2018-12-19T23:21:13.836Z,82.00
2018-12-19T23:23:41.513Z,82.00
2018-12-19T23:26:09.133Z,82.00
2018-12-19T23:28:36.614Z,82.00
2018-12-19T23:31:04.087Z,82.10
2018-12-19T23:33:31.663Z,82.00
2018-12-19T23:35:59.167Z,82.00
2018-12-19T23:38:26.669Z,81.90
2018-12-19T23:40:54.167Z,81.90
2018-12-19T23:43:21.663Z,82.00
2018-12-19T23:45:50.208Z,82.10
2018-12-19T23:48:17.738Z,82.10
2018-12-19T23:50:45.263Z,82.20
2018-12-19T23:53:12.871Z,82.20
2018-12-19T23:55:40.409Z,82.30
2018-12-19T23:58:08.006Z,82.30
